This is the latest recevied weather packets stored in our database for station/object IK2CIR-3. If no packets are shown the sender has not sent any weather packets the latest 10 day(s).
| Time | Temp. | Humidity | Pressure | Rain* | Wind** | Luminosity | Snow |
|---|---|---|---|---|---|---|---|
| 1788138418 | 74° F | 61% | 759.4 mmHg | - | - | - | - |
| 1788131218 | 76° F | 55% | 760 mmHg | - | - | - | - |
| 1788124018 | 79° F | 50% | 759.9 mmHg | - | - | - | - |
| 1788116818 | 81° F | 45% | 759.5 mmHg | - | - | - | - |
| 1788109617 | 91° F | 33% | 758.9 mmHg | - | - | - | - |
| 1788102417 | 100° F | 29% | 759.3 mmHg | - | - | - | - |
| 1788095217 | 102° F | 30% | 759.9 mmHg | - | - | - | - |
| 1788088046 | 99° F | 34% | 760.3 mmHg | - | - | - | - |
| 1788080846 | 90° F | 42% | 761.1 mmHg | - | - | - | - |
| 1788073646 | 84° F | 53% | 760.6 mmHg | - | - | - | - |
| 1788066445 | 71° F | 70% | 759 mmHg | - | - | - | - |
| 1788059245 | 70° F | 64% | 759.1 mmHg | - | - | - | - |
| 1788052045 | 71° F | 62% | 759.2 mmHg | - | - | - | - |
| 1788044844 | 73° F | 55% | 759.7 mmHg | - | - | - | - |
| 1788037644 | 74° F | 44% | 759.4 mmHg | - | - | - | - |
| 1788030444 | 80° F | 36% | 759 mmHg | - | - | - | - |
| 1788023243 | 91° F | 29% | 758.2 mmHg | - | - | - | - |
| 1788016043 | 101° F | 29% | 758.2 mmHg | - | - | - | - |
| 1788008842 | 102° F | 29% | 758.8 mmHg | - | - | - | - |
| 1788001642 | 97° F | 38% | 759.4 mmHg | - | - | - | - |
| 1787994442 | 90° F | 68% | 756.8 mmHg | - | - | - | - |
| 1787987242 | 83° F | 87% | 749.6 mmHg | - | - | - | - |
| 1787980042 | 70° F | 94% | 745.6 mmHg | - | - | - | - |
| 1787972841 | 71° F | 95% | 743.5 mmHg | - | - | - | - |
| 1787965630 | 72° F | 95% | 743.5 mmHg | - | - | - | - |
* Rain since midnight (hover to see other rain measurements)
** Current wind speed in m/s (hover to see current wind gust speed)